createdAt,value
2017-06-17T00:01:44.136Z,16.10
2017-06-17T00:04:13.180Z,16.20
2017-06-17T00:06:41.451Z,16.20
2017-06-17T00:09:09.762Z,16.20
2017-06-17T00:11:38.037Z,16.00
2017-06-17T00:14:06.309Z,16.00
2017-06-17T00:16:34.616Z,15.90
2017-06-17T00:19:03.668Z,15.80
2017-06-17T00:21:31.936Z,15.80
2017-06-17T00:24:00.233Z,15.80
2017-06-17T00:26:29.268Z,15.60
2017-06-17T00:28:57.547Z,15.60
2017-06-17T00:31:25.864Z,15.60
2017-06-17T00:33:54.140Z,15.60
2017-06-17T00:36:22.449Z,15.60
2017-06-17T00:38:50.748Z,15.70
2017-06-17T00:41:19.020Z,15.70
2017-06-17T00:43:47.300Z,15.80
2017-06-17T00:46:15.607Z,15.70
2017-06-17T00:48:43.883Z,15.70
2017-06-17T00:51:12.156Z,15.70
2017-06-17T00:53:40.676Z,15.70
2017-06-17T00:56:08.952Z,15.60
2017-06-17T00:58:37.987Z,15.50
2017-06-17T01:01:06.299Z,15.40
2017-06-17T01:03:34.567Z,15.40
2017-06-17T01:06:02.828Z,15.40
2017-06-17T01:08:31.136Z,15.50
2017-06-17T01:10:59.408Z,15.50
2017-06-17T01:13:27.681Z,15.40
2017-06-17T01:15:56.104Z,15.40
2017-06-17T01:18:24.384Z,15.50
2017-06-17T01:20:52.660Z,15.50
2017-06-17T01:23:20.983Z,15.40
2017-06-17T01:25:49.248Z,15.50
2017-06-17T01:28:17.515Z,15.50
2017-06-17T01:30:45.808Z,15.50
2017-06-17T01:33:14.075Z,15.50
2017-06-17T01:35:42.349Z,15.40
2017-06-17T01:38:11.428Z,15.30
2017-06-17T01:40:40.456Z,15.30
2017-06-17T01:43:08.722Z,15.20
2017-06-17T01:45:37.036Z,15.10
2017-06-17T01:48:05.299Z,15.10
2017-06-17T01:50:34.352Z,15.10
2017-06-17T01:53:02.668Z,15.00
2017-06-17T01:55:30.944Z,15.10
2017-06-17T01:57:59.228Z,15.10
2017-06-17T02:00:27.529Z,15.10
2017-06-17T02:02:55.819Z,15.20
2017-06-17T02:05:24.092Z,15.10
2017-06-17T02:07:52.407Z,15.10
2017-06-17T02:10:21.436Z,14.80
2017-06-17T02:12:49.752Z,14.80
2017-06-17T02:15:18.055Z,14.80
2017-06-17T02:17:46.324Z,14.80
2017-06-17T02:20:14.596Z,14.80
2017-06-17T02:22:43.909Z,14.80
2017-06-17T02:25:12.939Z,14.70
2017-06-17T02:27:41.209Z,14.70
2017-06-17T02:30:09.500Z,14.70
2017-06-17T02:32:37.766Z,14.70
2017-06-17T02:35:06.797Z,14.60
2017-06-17T02:37:35.104Z,14.60
2017-06-17T02:40:03.372Z,14.60
2017-06-17T02:42:32.504Z,14.50
2017-06-17T02:45:00.812Z,14.50
2017-06-17T02:47:29.084Z,14.40
2017-06-17T02:49:58.124Z,14.30
2017-06-17T02:52:26.432Z,14.30
2017-06-17T02:54:54.700Z,14.10
2017-06-17T02:57:22.989Z,14.30
2017-06-17T02:59:51.302Z,14.20
2017-06-17T03:02:19.572Z,14.20
2017-06-17T03:04:48.608Z,14.20
2017-06-17T03:07:17.020Z,14.10
2017-06-17T03:09:45.289Z,14.20
2017-06-17T03:12:13.568Z,14.00
2017-06-17T03:14:41.864Z,14.10
2017-06-17T03:17:10.127Z,14.00
2017-06-17T03:19:38.403Z,14.00
2017-06-17T03:22:06.710Z,14.00
2017-06-17T03:24:34.985Z,13.90
2017-06-17T03:27:03.244Z,13.80
2017-06-17T03:29:31.564Z,13.70
2017-06-17T03:32:00.596Z,13.60
2017-06-17T03:34:28.861Z,13.50
2017-06-17T03:36:57.164Z,13.70
2017-06-17T03:39:25.436Z,13.60
2017-06-17T03:41:54.470Z,13.50
2017-06-17T03:44:22.780Z,13.50
2017-06-17T03:46:51.048Z,13.60
2017-06-17T03:49:19.312Z,13.60
2017-06-17T03:51:47.623Z,13.50
2017-06-17T03:54:15.895Z,13.50
2017-06-17T03:56:44.176Z,13.60
2017-06-17T03:59:12.499Z,13.60
2017-06-17T04:01:40.767Z,13.60
2017-06-17T04:04:09.040Z,13.60
2017-06-17T04:06:37.350Z,13.60
2017-06-17T04:09:05.616Z,13.60
2017-06-17T04:11:33.880Z,13.70
2017-06-17T04:14:02.192Z,13.60
2017-06-17T04:16:31.230Z,13.80
2017-06-17T04:18:59.496Z,13.80
2017-06-17T04:21:27.815Z,13.90
2017-06-17T04:23:56.891Z,13.90
2017-06-17T04:26:25.935Z,13.80
2017-06-17T04:28:54.232Z,13.80
2017-06-17T04:31:22.516Z,13.80
2017-06-17T04:33:50.780Z,13.90
2017-06-17T04:36:19.204Z,14.00
2017-06-17T04:38:48.240Z,13.80
2017-06-17T04:41:16.508Z,13.80
2017-06-17T04:43:44.808Z,13.90
2017-06-17T04:46:13.840Z,14.10
2017-06-17T04:48:42.111Z,14.00
2017-06-17T04:51:10.399Z,14.10
2017-06-17T04:53:38.672Z,14.20
2017-06-17T04:56:07.708Z,14.20
2017-06-17T04:58:36.208Z,14.20
2017-06-17T05:01:04.483Z,14.30
2017-06-17T05:03:33.515Z,14.00
2017-06-17T05:06:01.832Z,13.90
2017-06-17T05:08:30.104Z,14.00
2017-06-17T05:10:58.384Z,14.10
2017-06-17T05:13:26.700Z,14.00
2017-06-17T05:15:55.733Z,14.00
2017-06-17T05:18:24.008Z,14.00
2017-06-17T05:20:52.305Z,14.10
2017-06-17T05:23:21.344Z,14.10
2017-06-17T05:25:49.608Z,14.10
2017-06-17T05:28:18.106Z,14.10
2017-06-17T05:30:46.372Z,14.20
2017-06-17T05:33:15.408Z,14.70
2017-06-17T05:35:43.759Z,14.60
2017-06-17T05:38:12.024Z,14.70
2017-06-17T05:40:40.291Z,14.90
2017-06-17T05:43:08.701Z,15.00
2017-06-17T05:45:37.736Z,15.10
2017-06-17T05:48:06.008Z,15.10
2017-06-17T05:50:34.304Z,15.30
2017-06-17T05:53:03.343Z,15.40
2017-06-17T05:55:31.608Z,15.40
2017-06-17T05:57:59.920Z,15.50
2017-06-17T06:00:28.220Z,15.30
2017-06-17T06:02:56.480Z,15.20
2017-06-17T06:05:24.993Z,15.20
2017-06-17T06:07:54.041Z,15.40
2017-06-17T06:10:22.303Z,15.40
2017-06-17T06:12:50.803Z,15.60
2017-06-17T06:15:19.831Z,15.90
2017-06-17T06:17:48.100Z,15.80
2017-06-17T06:20:16.524Z,15.90
2017-06-17T06:22:44.796Z,16.00
2017-06-17T06:25:13.072Z,16.00
2017-06-17T06:27:41.394Z,16.00
2017-06-17T06:30:09.680Z,16.00
2017-06-17T06:32:37.943Z,16.00
2017-06-17T06:35:06.368Z,15.80
2017-06-17T06:37:34.639Z,15.80
2017-06-17T06:40:03.692Z,15.90
2017-06-17T06:42:31.980Z,15.90
2017-06-17T06:45:01.019Z,15.90
2017-06-17T06:47:29.289Z,15.90
2017-06-17T06:49:57.604Z,16.00
2017-06-17T06:52:25.883Z,16.10
2017-06-17T06:54:54.164Z,16.20
2017-06-17T06:57:22.472Z,16.40
2017-06-17T06:59:51.496Z,16.20
2017-06-17T07:02:19.756Z,16.20
2017-06-17T07:04:48.072Z,16.30
2017-06-17T07:07:17.144Z,16.10
2017-06-17T07:09:46.185Z,16.10
2017-06-17T07:12:14.584Z,16.00
2017-06-17T07:14:43.721Z,16.40
2017-06-17T07:17:11.988Z,16.30
2017-06-17T07:19:40.287Z,16.70
2017-06-17T07:22:09.324Z,17.10
2017-06-17T07:24:37.592Z,17.00
2017-06-17T07:27:05.911Z,17.10
2017-06-17T07:29:34.181Z,16.90
2017-06-17T07:32:02.448Z,16.70
2017-06-17T07:34:30.840Z,16.60
2017-06-17T07:36:59.114Z,16.70
2017-06-17T07:39:27.380Z,17.10
2017-06-17T07:41:55.696Z,17.40
2017-06-17T07:44:23.976Z,17.40
2017-06-17T07:46:52.248Z,17.60
2017-06-17T07:49:20.548Z,17.50
2017-06-17T07:51:49.584Z,17.20
2017-06-17T07:54:17.848Z,17.20
2017-06-17T07:56:46.158Z,17.30
2017-06-17T07:59:15.229Z,17.50
2017-06-17T08:01:43.488Z,17.50
2017-06-17T08:04:12.576Z,17.80
2017-06-17T08:06:41.616Z,17.70
2017-06-17T08:09:09.876Z,17.60
2017-06-17T08:11:38.372Z,17.80
2017-06-17T08:14:07.419Z,17.90
2017-06-17T08:16:35.691Z,17.90
2017-06-17T08:19:04.004Z,18.40
2017-06-17T08:21:32.287Z,18.10
2017-06-17T08:24:00.545Z,18.10
2017-06-17T08:26:28.852Z,18.30
2017-06-17T08:28:57.124Z,18.60
2017-06-17T08:31:26.158Z,19.00
2017-06-17T08:33:54.672Z,18.90
2017-06-17T08:36:24.551Z,18.10
2017-06-17T08:38:52.826Z,18.10
2017-06-17T08:41:21.123Z,18.00
2017-06-17T08:43:49.395Z,18.00
2017-06-17T08:46:17.664Z,18.30
2017-06-17T08:48:45.977Z,18.20
2017-06-17T08:51:15.028Z,18.10
2017-06-17T08:53:43.331Z,18.10
2017-06-17T08:56:11.647Z,18.20
2017-06-17T08:58:39.920Z,18.40
2017-06-17T09:01:08.197Z,18.60
2017-06-17T09:03:37.296Z,19.00
2017-06-17T09:06:06.352Z,18.60
2017-06-17T09:08:34.624Z,18.60
2017-06-17T09:11:03.692Z,18.40
2017-06-17T09:13:31.963Z,18.40
2017-06-17T09:16:01.004Z,18.70
2017-06-17T09:18:29.325Z,18.60
2017-06-17T09:20:57.612Z,19.00
2017-06-17T09:23:25.879Z,18.80
2017-06-17T09:25:54.186Z,18.70
2017-06-17T09:28:23.268Z,18.30
2017-06-17T09:30:51.628Z,18.20
2017-06-17T09:33:19.936Z,18.40
2017-06-17T09:35:48.201Z,18.60
2017-06-17T09:38:16.468Z,19.00
2017-06-17T09:40:44.776Z,19.00
2017-06-17T09:43:13.804Z,18.90
2017-06-17T09:45:42.073Z,18.90
2017-06-17T09:48:10.383Z,19.00
2017-06-17T09:50:39.424Z,19.00
2017-06-17T09:53:07.696Z,18.90
2017-06-17T09:55:36.180Z,18.70
2017-06-17T09:58:05.216Z,18.00
2017-06-17T10:00:33.488Z,17.90
2017-06-17T10:03:01.864Z,18.10
2017-06-17T10:05:30.138Z,18.40
2017-06-17T10:07:58.420Z,18.30
2017-06-17T10:10:27.692Z,18.00
2017-06-17T10:12:56.728Z,18.20
2017-06-17T10:15:24.995Z,18.20
2017-06-17T10:17:53.300Z,18.60
2017-06-17T10:20:21.600Z,19.00
2017-06-17T10:22:49.873Z,18.80
2017-06-17T10:25:18.180Z,18.60
2017-06-17T10:27:47.215Z,18.50
2017-06-17T10:30:15.482Z,18.40
2017-06-17T10:32:43.808Z,18.30
2017-06-17T10:35:12.088Z,18.40
2017-06-17T10:37:40.360Z,18.60
2017-06-17T10:40:08.664Z,19.00
2017-06-17T10:42:37.700Z,19.50
2017-06-17T10:45:05.972Z,19.50
2017-06-17T10:47:34.469Z,19.60
2017-06-17T10:50:03.508Z,19.00
2017-06-17T10:52:31.776Z,18.90
2017-06-17T10:55:00.180Z,18.80
2017-06-17T10:57:28.468Z,18.90
2017-06-17T10:59:56.744Z,19.30
2017-06-17T11:02:25.061Z,19.80
2017-06-17T11:04:54.092Z,19.80
2017-06-17T11:07:22.364Z,19.80
2017-06-17T11:09:51.485Z,19.90
2017-06-17T11:12:20.523Z,20.10
2017-06-17T11:14:48.800Z,20.10
2017-06-17T11:17:17.128Z,20.10
2017-06-17T11:19:45.392Z,20.00
2017-06-17T11:22:13.668Z,19.70
2017-06-17T11:24:42.072Z,19.90
2017-06-17T11:27:11.105Z,20.50
2017-06-17T11:29:39.374Z,20.50
2017-06-17T11:32:07.676Z,20.90
2017-06-17T11:34:36.708Z,21.30
2017-06-17T11:37:04.976Z,21.20
2017-06-17T11:39:33.480Z,21.50
2017-06-17T11:42:02.524Z,20.80
2017-06-17T11:44:30.792Z,20.80
2017-06-17T11:46:59.112Z,20.70
2017-06-17T11:49:27.428Z,21.10
2017-06-17T11:51:55.699Z,21.20
2017-06-17T11:54:24.015Z,21.30
2017-06-17T11:56:52.283Z,21.30
2017-06-17T11:59:20.559Z,21.40
2017-06-17T12:01:49.157Z,21.70
2017-06-17T12:04:18.190Z,21.70
2017-06-17T12:06:46.460Z,21.70
2017-06-17T12:09:14.768Z,21.80
2017-06-17T12:11:43.804Z,22.10
2017-06-17T12:14:12.071Z,22.00
2017-06-17T12:16:40.369Z,22.30
2017-06-17T12:19:09.407Z,22.10
2017-06-17T12:21:37.668Z,22.00
2017-06-17T12:24:05.983Z,21.80
2017-06-17T12:26:34.252Z,21.90
2017-06-17T12:29:02.536Z,21.80
2017-06-17T12:31:30.820Z,21.50
2017-06-17T12:33:59.100Z,21.70
2017-06-17T12:36:27.370Z,22.30
2017-06-17T12:38:56.432Z,22.30
2017-06-17T12:41:24.705Z,22.30
2017-06-17T12:43:53.741Z,23.20
2017-06-17T12:46:22.179Z,23.20
2017-06-17T12:48:51.200Z,22.40
2017-06-17T12:51:19.466Z,22.30
2017-06-17T12:53:47.961Z,22.00
2017-06-17T12:56:16.993Z,21.90
2017-06-17T12:58:45.259Z,21.90
2017-06-17T13:01:13.564Z,21.80
2017-06-17T13:03:42.608Z,21.20
2017-06-17T13:06:10.872Z,21.10
2017-06-17T13:08:39.184Z,21.80
2017-06-17T13:11:07.456Z,22.30
2017-06-17T13:13:35.733Z,22.80
2017-06-17T13:16:04.036Z,22.90
2017-06-17T13:18:32.312Z,22.70
2017-06-17T13:21:00.568Z,22.90
2017-06-17T13:23:29.744Z,23.80
2017-06-17T13:25:58.788Z,24.00
2017-06-17T13:28:27.088Z,23.90
2017-06-17T13:30:56.168Z,24.10
2017-06-17T13:33:24.446Z,24.10
2017-06-17T13:35:53.493Z,24.20
2017-06-17T13:38:21.793Z,24.10
2017-06-17T13:40:50.068Z,24.10
2017-06-17T13:43:18.348Z,23.70
2017-06-17T13:45:46.676Z,23.00
2017-06-17T13:48:14.965Z,22.60
2017-06-17T13:50:43.228Z,22.90
2017-06-17T13:53:11.544Z,23.50
2017-06-17T13:55:40.587Z,24.10
2017-06-17T13:58:08.953Z,24.00
2017-06-17T14:00:37.655Z,23.90
2017-06-17T14:03:05.944Z,23.80
2017-06-17T14:05:34.228Z,23.60
2017-06-17T14:08:02.536Z,23.40
2017-06-17T14:10:31.788Z,22.80
2017-06-17T14:13:00.072Z,22.70
2017-06-17T14:15:28.373Z,22.20
2017-06-17T14:17:56.648Z,22.20
2017-06-17T14:20:24.920Z,22.80
2017-06-17T14:22:53.225Z,23.50
2017-06-17T14:25:21.507Z,23.90
2017-06-17T14:27:50.540Z,23.80
2017-06-17T14:30:19.575Z,23.70
2017-06-17T14:32:47.840Z,23.00
2017-06-17T14:35:16.109Z,23.10
2017-06-17T14:37:44.424Z,23.60
2017-06-17T14:40:12.700Z,23.80
2017-06-17T14:42:41.734Z,23.20
2017-06-17T14:45:10.139Z,23.20
2017-06-17T14:47:39.188Z,23.00
2017-06-17T14:50:07.436Z,23.00
2017-06-17T14:52:36.050Z,23.00
2017-06-17T14:55:05.085Z,22.50
2017-06-17T14:57:33.359Z,22.50
2017-06-17T15:00:01.669Z,22.20
2017-06-17T15:02:29.944Z,21.80
2017-06-17T15:04:58.220Z,21.70
2017-06-17T15:07:26.512Z,21.90
2017-06-17T15:09:54.788Z,21.80
2017-06-17T15:12:23.059Z,21.80
2017-06-17T15:14:52.244Z,21.60
2017-06-17T15:17:21.364Z,21.20
2017-06-17T15:19:49.631Z,21.20
2017-06-17T15:22:17.924Z,21.20
2017-06-17T15:24:46.192Z,21.30
2017-06-17T15:27:15.239Z,21.80
2017-06-17T15:29:43.538Z,21.80
2017-06-17T15:32:11.811Z,22.00
2017-06-17T15:34:40.844Z,22.20
2017-06-17T15:37:09.146Z,22.20
2017-06-17T15:39:38.180Z,21.80
2017-06-17T15:42:06.448Z,21.80
2017-06-17T15:44:34.757Z,21.70
2017-06-17T15:47:03.800Z,21.10
2017-06-17T15:49:32.080Z,21.00
2017-06-17T15:52:00.402Z,21.20
2017-06-17T15:54:28.685Z,21.60
2017-06-17T15:56:57.018Z,21.90
2017-06-17T15:59:25.344Z,21.60
2017-06-17T16:01:54.395Z,21.10
2017-06-17T16:04:22.666Z,21.00
2017-06-17T16:06:50.968Z,21.10
2017-06-17T16:09:19.253Z,21.10
2017-06-17T16:11:47.523Z,21.00
2017-06-17T16:14:15.937Z,20.90
2017-06-17T16:16:44.212Z,20.70
2017-06-17T16:19:12.476Z,20.70
2017-06-17T16:21:40.772Z,20.70
2017-06-17T16:24:09.049Z,20.60
2017-06-17T16:26:37.308Z,20.70
2017-06-17T16:29:05.608Z,20.50
2017-06-17T16:31:33.880Z,20.40
2017-06-17T16:34:02.140Z,20.20
2017-06-17T16:36:30.452Z,20.10
2017-06-17T16:38:58.733Z,20.00
2017-06-17T16:41:27.010Z,19.90
2017-06-17T16:43:56.172Z,19.50
2017-06-17T16:46:24.448Z,19.50
2017-06-17T16:48:52.721Z,19.60
2017-06-17T16:51:21.873Z,19.30
2017-06-17T16:53:50.144Z,19.30
2017-06-17T16:56:18.406Z,19.20
2017-06-17T16:58:46.720Z,19.30
2017-06-17T17:01:14.984Z,19.20
2017-06-17T17:03:43.252Z,19.00
2017-06-17T17:06:11.585Z,19.10
2017-06-17T17:08:39.844Z,19.10
2017-06-17T17:11:08.116Z,19.10
2017-06-17T17:13:36.427Z,18.90
2017-06-17T17:16:04.704Z,18.90
2017-06-17T17:18:33.740Z,18.90
2017-06-17T17:21:02.249Z,18.80
2017-06-17T17:23:31.292Z,19.00
2017-06-17T17:25:59.560Z,19.00
2017-06-17T17:28:28.167Z,18.90
2017-06-17T17:30:57.204Z,18.60
2017-06-17T17:33:26.487Z,18.50
2017-06-17T17:35:54.793Z,18.60
2017-06-17T17:38:23.092Z,18.50
2017-06-17T17:40:51.368Z,18.50
2017-06-17T17:43:19.679Z,18.40
2017-06-17T17:45:48.715Z,18.40
2017-06-17T17:48:16.992Z,18.40
2017-06-17T17:50:45.300Z,18.50
2017-06-17T17:53:13.576Z,18.40
2017-06-17T17:55:41.852Z,18.30
2017-06-17T17:58:10.171Z,18.30
2017-06-17T18:00:39.208Z,18.30
2017-06-17T18:03:07.576Z,18.20
2017-06-17T18:05:36.048Z,18.30
2017-06-17T18:08:05.108Z,18.30
2017-06-17T18:10:33.376Z,18.20
2017-06-17T18:13:01.672Z,18.20
2017-06-17T18:15:30.700Z,18.00
2017-06-17T18:17:58.971Z,17.90
2017-06-17T18:20:27.285Z,17.80
2017-06-17T18:22:55.561Z,17.90
2017-06-17T18:25:23.852Z,17.90
2017-06-17T18:27:52.153Z,17.90
2017-06-17T18:30:21.201Z,17.90
2017-06-17T18:32:49.488Z,17.80
2017-06-17T18:35:17.961Z,17.70
2017-06-17T18:37:46.996Z,17.70
2017-06-17T18:40:15.273Z,17.70
2017-06-17T18:42:43.595Z,17.60
2017-06-17T18:45:11.859Z,17.70
2017-06-17T18:47:40.124Z,17.70
2017-06-17T18:50:08.608Z,17.60
2017-06-17T18:52:36.871Z,17.60
2017-06-17T18:55:05.152Z,17.50
2017-06-17T18:57:33.463Z,17.50
2017-06-17T19:00:01.745Z,17.50
2017-06-17T19:02:30.007Z,17.40
2017-06-17T19:04:58.332Z,17.50
2017-06-17T19:07:26.604Z,17.40
2017-06-17T19:09:54.885Z,17.40
2017-06-17T19:12:23.206Z,17.20
2017-06-17T19:14:51.472Z,17.20
2017-06-17T19:17:19.748Z,17.30
2017-06-17T19:19:48.063Z,17.30
2017-06-17T19:22:16.337Z,17.20
2017-06-17T19:24:44.616Z,17.10
2017-06-17T19:27:13.665Z,17.10
2017-06-17T19:29:41.944Z,17.10
2017-06-17T19:32:10.204Z,17.10
2017-06-17T19:34:38.512Z,17.10
2017-06-17T19:37:06.785Z,17.10
2017-06-17T19:39:35.051Z,16.90
2017-06-17T19:42:03.363Z,16.90
2017-06-17T19:44:32.416Z,16.80
2017-06-17T19:47:00.688Z,16.80
2017-06-17T19:49:29.156Z,16.80
2017-06-17T19:51:58.189Z,16.70
2017-06-17T19:54:28.429Z,16.70
2017-06-17T19:56:56.721Z,16.60
2017-06-17T19:59:25.771Z,16.60
2017-06-17T20:01:54.184Z,16.50
2017-06-17T20:04:22.468Z,16.60
2017-06-17T20:06:50.757Z,16.60
2017-06-17T20:09:19.084Z,16.60
2017-06-17T20:11:47.361Z,16.50
2017-06-17T20:14:15.620Z,16.40
2017-06-17T20:16:43.987Z,16.40
2017-06-17T20:19:12.268Z,16.30
2017-06-17T20:21:46.238Z,16.20
2017-06-17T20:24:20.122Z,16.20
2017-06-17T20:26:48.428Z,16.10
2017-06-17T20:29:16.692Z,16.10
2017-06-17T20:31:45.739Z,16.10
2017-06-17T20:34:14.148Z,16.00
2017-06-17T20:36:43.188Z,16.00
2017-06-17T20:39:11.464Z,16.00
2017-06-17T20:41:39.784Z,16.10
2017-06-17T20:44:08.055Z,16.10
2017-06-17T20:46:36.329Z,16.10
2017-06-17T20:49:04.652Z,16.00
2017-06-17T20:51:32.928Z,16.00
2017-06-17T20:54:04.388Z,16.10
2017-06-17T20:56:32.692Z,16.10
2017-06-17T20:59:01.732Z,16.30
2017-06-17T21:01:30.024Z,16.20
2017-06-17T21:03:58.318Z,16.40
2017-06-17T21:06:26.595Z,16.50
2017-06-17T21:08:54.952Z,16.50
2017-06-17T21:11:23.220Z,16.50
2017-06-17T21:13:51.500Z,16.40
2017-06-17T21:16:19.808Z,16.50
2017-06-17T21:18:48.844Z,16.60
2017-06-17T21:21:17.116Z,16.60
2017-06-17T21:23:45.436Z,16.60
2017-06-17T21:26:13.704Z,16.70
2017-06-17T21:28:41.971Z,16.80
2017-06-17T21:31:10.272Z,16.80
2017-06-17T21:33:38.541Z,16.80
2017-06-17T21:36:06.807Z,16.80
2017-06-17T21:38:35.872Z,16.80
2017-06-17T21:41:04.153Z,16.80
2017-06-17T21:43:33.180Z,16.80
2017-06-17T21:46:41.856Z,16.80
2017-06-17T21:49:10.127Z,16.90
2017-06-17T21:51:38.399Z,16.80
2017-06-17T21:54:06.705Z,16.80
2017-06-17T21:56:35.955Z,16.60
2017-06-17T21:59:04.224Z,16.60
2017-06-17T22:01:32.528Z,16.40
2017-06-17T22:04:01.564Z,16.20
2017-06-17T22:06:29.836Z,16.20
2017-06-17T22:08:58.360Z,16.10
2017-06-17T22:11:26.615Z,16.10
2017-06-17T22:13:54.892Z,16.10
2017-06-17T22:16:23.207Z,16.00
2017-06-17T22:18:52.236Z,15.90
2017-06-17T22:21:20.507Z,15.90
2017-06-17T22:23:49.016Z,15.90
2017-06-17T22:26:18.052Z,15.80
2017-06-17T22:28:46.328Z,15.70
2017-06-17T22:31:14.632Z,15.70
2017-06-17T22:33:42.895Z,15.60
2017-06-17T22:36:11.159Z,15.50
2017-06-17T22:38:39.472Z,15.40
2017-06-17T22:41:07.744Z,15.40
2017-06-17T22:43:36.008Z,15.30
2017-06-17T22:46:04.511Z,15.20
2017-06-17T22:48:32.792Z,15.10
2017-06-17T22:51:01.068Z,15.10
2017-06-17T22:53:29.384Z,15.00
2017-06-17T22:55:57.660Z,15.30
2017-06-17T22:58:25.931Z,15.20
2017-06-17T23:00:54.459Z,15.10
2017-06-17T23:03:23.504Z,14.90
2017-06-17T23:05:51.768Z,14.90
2017-06-17T23:08:20.068Z,14.90
2017-06-17T23:10:49.135Z,14.80
2017-06-17T23:13:17.411Z,14.80
2017-06-17T23:15:46.476Z,14.80
2017-06-17T23:18:14.745Z,14.70
2017-06-17T23:20:43.796Z,14.70
2017-06-17T23:23:12.100Z,14.60
2017-06-17T23:25:40.372Z,14.70
2017-06-17T23:28:08.652Z,14.70
2017-06-17T23:30:37.174Z,14.70
2017-06-17T23:33:06.208Z,14.80
2017-06-17T23:35:34.480Z,14.70
2017-06-17T23:38:02.773Z,14.70
2017-06-17T23:40:31.822Z,14.80
2017-06-17T23:43:00.099Z,14.70
2017-06-17T23:45:28.415Z,14.70
2017-06-17T23:47:56.692Z,14.70
2017-06-17T23:50:24.968Z,14.70
2017-06-17T23:52:53.277Z,14.70
2017-06-17T23:55:21.548Z,14.60
2017-06-17T23:57:49.821Z,14.60
